Time;durP1;ratioP1;P1;durP2;ratioP2;P2;SDS_P1;SDS_P2;PMS_P1;PMS_P2;Temp;Humidity;BMP_temperature;BMP_pressure;BME280_temperature;BME280_humidity;BME280_pressure;Samples;Min_cycle;Max_cycle;Signal;HPM_P1;HPM_P2
2022/06/01 00:01:10;;;;;;;27.90;8.25;;;24.40;90.90;;;;;;5093681;28;20040;-67
2022/06/01 00:03:39;;;;;;;25.08;8.95;;;24.40;90.90;;;;;;5094493;28;20078;-69
2022/06/01 00:06:05;;;;;;;25.80;8.30;;;24.40;91.00;;;;;;5094000;28;20370;-67
2022/06/01 00:08:31;;;;;;;26.60;8.20;;;24.40;91.00;;;;;;5093887;28;20034;-67
2022/06/01 00:10:58;;;;;;;20.23;7.95;;;24.40;91.00;;;;;;5093810;28;20107;-69
2022/06/01 00:13:25;;;;;;;22.83;9.05;;;24.40;91.00;;;;;;5093808;28;20063;-68
2022/06/01 00:15:50;;;;;;;28.05;7.38;;;24.40;91.00;;;;;;5075369;28;20461;-69
2022/06/01 00:18:16;;;;;;;26.30;9.32;;;24.40;91.20;;;;;;5093757;28;20035;-67
2022/06/01 00:20:42;;;;;;;24.02;8.65;;;24.40;91.10;;;;;;5093508;28;20059;-66
2022/06/01 00:23:08;;;;;;;22.98;8.20;;;24.30;91.40;;;;;;5093944;28;20473;-70
2022/06/01 00:25:34;;;;;;;30.63;8.25;;;24.30;91.60;;;;;;5093973;28;20103;-68
2022/06/01 00:28:00;;;;;;;24.98;8.30;;;24.30;91.60;;;;;;5093684;28;20024;-68
2022/06/01 00:30:26;;;;;;;28.80;8.45;;;24.30;91.80;;;;;;5093568;28;20381;-67
2022/06/01 00:32:52;;;;;;;25.60;8.40;;;24.20;92.00;;;;;;5094416;28;20077;-68
2022/06/01 00:35:20;;;;;;;25.92;8.43;;;24.20;92.30;;;;;;5093463;28;20099;-68
2022/06/01 00:37:46;;;;;;;25.23;8.68;;;24.20;92.30;;;;;;5093527;28;20061;-68
2022/06/01 00:40:13;;;;;;;27.88;8.60;;;24.20;92.20;;;;;;5093204;28;20040;-68
2022/06/01 00:42:43;;;;;;;29.10;7.70;;;24.20;92.10;;;;;;5093189;28;20042;-66
2022/06/01 00:45:10;;;;;;;25.65;7.13;;;24.20;92.40;;;;;;5093217;28;20031;-68
2022/06/01 00:47:36;;;;;;;24.90;7.45;;;24.10;92.20;;;;;;5093588;28;20024;-66
2022/06/01 00:50:19;;;;;;;30.77;7.65;;;24.10;92.20;;;;;;5093071;28;20388;-67
2022/06/01 00:52:54;;;;;;;23.75;7.22;;;24.10;92.30;;;;;;5092739;28;20028;-67
2022/06/01 00:55:24;;;;;;;22.75;7.97;;;24.00;92.50;;;;;;5093435;28;20107;-69
2022/06/01 00:57:54;;;;;;;28.02;8.20;;;24.00;92.50;;;;;;5093140;28;20465;-67
2022/06/01 01:00:23;;;;;;;21.08;7.07;;;24.00;92.60;;;;;;5093059;28;20051;-67
2022/06/01 01:02:52;;;;;;;20.35;8.98;;;23.90;92.70;;;;;;5093421;28;20366;-67
2022/06/01 01:05:19;;;;;;;18.83;8.05;;;23.90;92.60;;;;;;5075545;28;20025;-68
2022/06/01 01:07:45;;;;;;;19.25;7.68;;;23.90;92.70;;;;;;5093113;28;20025;-67
2022/06/01 01:10:15;;;;;;;30.02;8.02;;;23.90;92.70;;;;;;5093005;28;20512;-68
2022/06/01 01:12:56;;;;;;;20.13;7.43;;;23.90;92.80;;;;;;5092971;28;20084;-67
2022/06/01 01:15:24;;;;;;;22.70;7.45;;;24.00;92.40;;;;;;5093180;28;20028;-67
2022/06/01 01:17:52;;;;;;;20.80;7.88;;;24.00;92.20;;;;;;5093005;28;20028;-67
2022/06/01 01:20:19;;;;;;;21.52;8.27;;;24.00;92.20;;;;;;5093054;28;20139;-67
2022/06/01 01:22:56;;;;;;;23.27;7.43;;;23.90;92.40;;;;;;5093281;28;20469;-68
2022/06/01 01:25:29;;;;;;;24.45;8.00;;;24.00;92.20;;;;;;5093151;28;20126;-66
2022/06/01 01:27:58;;;;;;;22.13;7.55;;;24.10;92.10;;;;;;5093110;28;20020;-67
2022/06/01 01:30:39;;;;;;;20.00;7.43;;;24.20;91.60;;;;;;5092728;28;20020;-66
2022/06/01 01:33:08;;;;;;;27.25;7.75;;;24.10;91.90;;;;;;5092947;28;20027;-68
2022/06/01 01:35:34;;;;;;;24.35;7.85;;;24.10;91.70;;;;;;5093042;28;20084;-68
2022/06/01 01:38:06;;;;;;;23.20;7.93;;;24.10;91.80;;;;;;5092999;28;20492;-68
2022/06/01 01:40:32;;;;;;;25.73;7.82;;;24.10;91.90;;;;;;5074649;28;20141;-67
2022/06/01 01:43:00;;;;;;;22.42;7.97;;;24.10;91.90;;;;;;5092895;28;20043;-68
2022/06/01 01:45:31;;;;;;;17.02;7.53;;;24.20;91.80;;;;;;5092732;28;20099;-67
2022/06/01 01:47:57;;;;;;;24.05;9.00;;;24.10;91.80;;;;;;5092782;28;20020;-67
2022/06/01 01:50:25;;;;;;;16.90;6.95;;;24.10;92.00;;;;;;5092827;28;20051;-67
2022/06/01 01:52:52;;;;;;;19.75;8.10;;;24.00;91.90;;;;;;5092781;28;20518;-65
2022/06/01 01:55:56;;;;;;;21.88;7.47;;;24.00;92.00;;;;;;5092918;28;20027;-68
2022/06/01 01:58:27;;;;;;;;;;;24.10;92.10;;;;;;5093579;28;20054;-67
2022/06/01 02:00:58;;;;;;;20.08;7.60;;;24.10;92.20;;;;;;5092423;28;20349;-67
2022/06/01 02:03:32;;;;;;;22.40;8.35;;;24.00;91.50;;;;;;5092625;28;20025;-66
2022/06/01 02:06:23;;;;;;;;;;;24.00;91.70;;;;;;5095413;28;20027;-68
2022/06/01 02:08:58;;;;;;;22.65;8.32;;;23.90;92.80;;;;;;5104501;28;19915;-68
2022/06/01 02:14:41;;;;;;;23.35;7.82;;;23.80;92.40;;;;;;5096522;28;20038;-68
2022/06/01 02:17:15;;;;;;;17.75;7.00;;;23.70;92.60;;;;;;5096182;28;20107;-67
2022/06/01 02:19:56;;;;;;;27.40;7.10;;;23.80;92.50;;;;;;5095703;28;20055;-68
2022/06/01 02:22:23;;;;;;;23.20;7.47;;;23.80;92.50;;;;;;5096084;28;20028;-67
2022/06/01 02:24:49;;;;;;;21.45;7.50;;;23.70;92.50;;;;;;5096009;28;20020;-68
2022/06/01 02:27:16;;;;;;;21.58;6.70;;;23.70;92.60;;;;;;5095900;28;20033;-69
2022/06/01 02:29:47;;;;;;;20.20;7.40;;;23.70;92.50;;;;;;5095579;28;20020;-67
2022/06/01 02:32:14;;;;;;;25.10;7.53;;;23.70;92.70;;;;;;5095609;28;20024;-67
2022/06/01 02:34:43;;;;;;;19.20;7.25;;;23.80;92.70;;;;;;5095813;28;20056;-67
2022/06/01 02:37:11;;;;;;;21.75;7.32;;;23.80;92.50;;;;;;5095534;28;20130;-68
2022/06/01 02:39:40;;;;;;;15.02;6.82;;;23.80;92.40;;;;;;5095523;28;20063;-67
2022/06/01 02:42:26;;;;;;;24.08;7.70;;;23.80;92.50;;;;;;5095660;28;20077;-67
2022/06/01 02:45:06;;;;;;;19.13;7.13;;;23.80;92.50;;;;;;5095503;28;20045;-66
2022/06/01 02:47:37;;;;;;;19.20;7.88;;;23.80;92.40;;;;;;5095264;28;20020;-67
2022/06/01 02:50:04;;;;;;;19.85;7.78;;;23.80;92.30;;;;;;5095656;28;20475;-67
2022/06/01 02:52:30;;;;;;;22.23;7.85;;;23.80;92.30;;;;;;5077376;28;20081;-68
2022/06/01 02:54:55;;;;;;;21.98;7.88;;;23.70;92.30;;;;;;5095348;28;20476;-68
2022/06/01 02:57:22;;;;;;;19.52;7.13;;;23.60;92.50;;;;;;5095241;28;20031;-67
2022/06/01 02:59:48;;;;;;;22.50;7.85;;;23.60;92.40;;;;;;5095033;28;20032;-67
2022/06/01 03:02:14;;;;;;;22.20;7.70;;;23.50;92.20;;;;;;5094932;28;20077;-67
2022/06/01 03:04:45;;;;;;;19.67;7.13;;;23.50;91.80;;;;;;5095277;28;20036;-66
2022/06/01 03:07:12;;;;;;;16.95;5.78;;;23.50;91.50;;;;;;5095290;28;20153;-68
2022/06/01 03:09:38;;;;;;;19.85;6.97;;;23.50;91.20;;;;;;5094896;28;20016;-67
2022/06/01 03:12:05;;;;;;;19.65;7.30;;;23.50;91.30;;;;;;5094911;28;20031;-67
2022/06/01 03:14:32;;;;;;;19.05;6.90;;;23.50;90.40;;;;;;5095051;28;20022;-69
2022/06/01 03:16:58;;;;;;;20.27;6.10;;;23.40;90.00;;;;;;5094578;28;20035;-68
2022/06/01 03:19:24;;;;;;;19.20;6.43;;;23.40;89.80;;;;;;5094663;28;20048;-69
2022/06/01 03:21:50;;;;;;;16.65;5.85;;;23.40;88.90;;;;;;5094918;28;20028;-67
2022/06/01 03:24:17;;;;;;;19.50;6.63;;;23.30;88.60;;;;;;5095039;28;20020;-66
2022/06/01 03:26:43;;;;;;;19.98;6.10;;;23.30;88.10;;;;;;5095541;28;20020;-69
2022/06/01 03:29:09;;;;;;;16.92;6.10;;;23.30;88.20;;;;;;5095284;28;20152;-70
2022/06/01 03:31:35;;;;;;;14.90;5.85;;;23.30;87.40;;;;;;5095049;28;20385;-66
2022/06/01 03:34:01;;;;;;;20.00;6.85;;;23.30;87.30;;;;;;5094589;28;20027;-68
2022/06/01 03:36:27;;;;;;;18.00;6.00;;;23.30;87.80;;;;;;5094463;28;20103;-67
2022/06/01 03:38:53;;;;;;;15.80;6.20;;;23.20;88.30;;;;;;5094434;28;20032;-67
2022/06/01 03:41:18;;;;;;;28.98;7.55;;;23.20;89.00;;;;;;5094507;28;20105;-67
2022/06/01 03:46:32;;;;;;;19.27;6.80;;;23.30;88.90;;;;;;5095345;28;20073;-67
2022/06/01 03:48:58;;;;;;;19.65;6.90;;;23.30;88.10;;;;;;5094751;28;20450;-67
2022/06/01 03:51:26;;;;;;;18.00;6.05;;;23.20;87.90;;;;;;5094253;28;20075;-68
2022/06/01 03:53:51;;;;;;;21.25;6.50;;;23.20;88.00;;;;;;5094142;28;20055;-67
2022/06/01 03:56:17;;;;;;;15.98;6.65;;;23.20;88.00;;;;;;5094304;28;20048;-66
2022/06/01 03:58:42;;;;;;;17.42;6.95;;;23.20;87.90;;;;;;5094339;28;20377;-68
2022/06/01 04:01:09;;;;;;;21.50;6.85;;;23.10;87.50;;;;;;5093847;28;20047;-68
2022/06/01 04:03:35;;;;;;;17.33;7.10;;;23.10;87.60;;;;;;5094056;28;20078;-70
2022/06/01 04:06:01;;;;;;;21.52;7.28;;;23.20;87.50;;;;;;5075763;28;20028;-68
2022/06/01 04:08:26;;;;;;;23.83;7.30;;;23.10;87.10;;;;;;5094091;28;20032;-70
2022/06/01 04:10:52;;;;;;;15.70;6.60;;;23.10;86.90;;;;;;5093569;28;20032;-69
2022/06/01 04:13:18;;;;;;;21.38;7.35;;;23.10;86.90;;;;;;5093732;28;20016;-69
2022/06/01 04:15:44;;;;;;;16.30;6.88;;;23.20;86.50;;;;;;5093743;28;20488;-67
2022/06/01 04:18:10;;;;;;;23.35;7.70;;;23.20;86.60;;;;;;5093986;28;20024;-68
2022/06/01 04:20:36;;;;;;;18.52;7.18;;;23.20;86.70;;;;;;5093317;28;20079;-68
2022/06/01 04:23:02;;;;;;;19.35;6.70;;;23.20;86.80;;;;;;5076245;28;20039;-68
2022/06/01 04:25:30;;;;;;;22.27;7.00;;;23.10;86.90;;;;;;5093785;28;20074;-69
2022/06/01 04:27:56;;;;;;;23.02;7.00;;;23.10;87.30;;;;;;5092919;28;20020;-68
2022/06/01 04:30:22;;;;;;;24.05;6.93;;;23.10;87.30;;;;;;5093787;28;20031;-67
2022/06/01 04:32:50;;;;;;;17.38;6.85;;;23.10;86.60;;;;;;5093805;28;20039;-71
2022/06/01 04:35:17;;;;;;;16.35;6.63;;;23.10;86.10;;;;;;5093679;28;20028;-69
2022/06/01 04:37:43;;;;;;;15.57;6.75;;;23.10;86.30;;;;;;5093581;28;20055;-68
2022/06/01 04:40:15;;;;;;;15.55;6.65;;;23.10;86.10;;;;;;5093757;28;20109;-69
2022/06/01 04:42:42;;;;;;;18.27;6.68;;;23.00;85.80;;;;;;5093648;28;20047;-69
2022/06/01 04:45:10;;;;;;;20.70;6.75;;;23.00;86.10;;;;;;5093375;28;20464;-70
2022/06/01 04:47:36;;;;;;;17.13;6.53;;;23.00;85.90;;;;;;5093670;28;20050;-67
2022/06/01 04:50:04;;;;;;;18.35;6.50;;;23.10;85.80;;;;;;5074991;28;20028;-69
2022/06/01 04:52:30;;;;;;;19.40;7.70;;;23.20;86.00;;;;;;5093190;28;20101;-67
2022/06/01 04:54:56;;;;;;;20.23;7.50;;;23.20;85.60;;;;;;5093372;28;20135;-68
2022/06/01 04:57:21;;;;;;;19.55;6.90;;;23.20;85.00;;;;;;5093311;28;20461;-68
2022/06/01 04:59:47;;;;;;;22.15;6.80;;;23.20;84.20;;;;;;5093210;28;20069;-70
2022/06/01 05:02:14;;;;;;;19.42;6.28;;;23.30;83.50;;;;;;5093233;28;20024;-70
2022/06/01 05:04:40;;;;;;;14.20;5.95;;;23.40;81.80;;;;;;5093529;28;20473;-70
2022/06/01 05:07:07;;;;;;;19.70;6.40;;;23.40;80.90;;;;;;5093424;28;20020;-70
2022/06/01 05:09:33;;;;;;;15.60;5.78;;;23.50;80.80;;;;;;5093460;28;20461;-67
2022/06/01 05:11:59;;;;;;;16.42;5.65;;;23.70;79.70;;;;;;5075608;28;20035;-70
2022/06/01 05:14:25;;;;;;;21.10;5.82;;;23.80;78.30;;;;;;5093175;28;20024;-69
2022/06/01 05:16:51;;;;;;;22.10;5.57;;;23.90;77.00;;;;;;5093512;28;20097;-70
2022/06/01 05:19:18;;;;;;;12.40;5.97;;;24.10;75.70;;;;;;5094377;28;20393;-67
2022/06/01 05:21:44;;;;;;;19.15;6.22;;;24.20;75.20;;;;;;5093451;28;20414;-68
2022/06/01 05:24:10;;;;;;;20.65;5.85;;;24.50;73.80;;;;;;5093389;28;20024;-69
2022/06/01 05:26:35;;;;;;;21.88;5.75;;;24.90;72.40;;;;;;5093058;28;20031;-70
2022/06/01 05:29:01;;;;;;;17.52;5.70;;;25.10;71.00;;;;;;5092845;28;20424;-71
2022/06/01 05:31:27;;;;;;;20.10;4.97;;;25.50;70.20;;;;;;5093069;28;20433;-72
2022/06/01 05:33:52;;;;;;;17.50;5.43;;;25.80;68.30;;;;;;5092962;28;20465;-69
2022/06/01 05:36:18;;;;;;;16.35;5.22;;;26.10;67.80;;;;;;5092954;28;20098;-71
2022/06/01 05:38:47;;;;;;;21.45;5.57;;;26.10;67.50;;;;;;5093417;28;20024;-68
2022/06/01 05:41:14;;;;;;;17.50;5.78;;;26.40;67.10;;;;;;5096564;28;20032;-68
2022/06/01 05:43:40;;;;;;;28.25;6.03;;;26.80;66.80;;;;;;5096478;28;20042;-69
2022/06/01 05:46:05;;;;;;;23.35;6.57;;;27.20;65.90;;;;;;5096446;28;20024;-69
2022/06/01 05:48:31;;;;;;;18.42;5.40;;;27.50;65.50;;;;;;5096428;28;20045;-70
2022/06/01 05:50:57;;;;;;;25.33;6.82;;;27.70;65.30;;;;;;5096192;28;20031;-70
2022/06/01 05:53:23;;;;;;;17.63;6.75;;;27.80;65.00;;;;;;5096771;28;20090;-70
2022/06/01 05:55:49;;;;;;;29.35;7.82;;;27.90;64.50;;;;;;5096728;28;20541;-72
2022/06/01 05:58:18;;;;;;;22.88;7.90;;;28.10;63.90;;;;;;5096389;28;20057;-74
2022/06/01 06:00:46;;;;;;;24.90;7.45;;;28.20;63.80;;;;;;5096021;28;20032;-70
2022/06/01 06:03:13;;;;;;;25.60;6.95;;;28.10;63.20;;;;;;5095917;28;20016;-70
2022/06/01 06:08:24;;;;;;;18.50;6.93;;;28.10;64.10;;;;;;5096369;28;20081;-72
2022/06/01 06:10:51;;;;;;;23.88;7.28;;;28.30;63.40;;;;;;5096091;28;20124;-69
2022/06/01 06:13:17;;;;;;;22.27;7.70;;;28.50;63.20;;;;;;5096223;28;20020;-69
2022/06/01 06:15:43;;;;;;;20.75;7.28;;;28.60;62.50;;;;;;5095784;28;20043;-70
2022/06/01 06:18:13;;;;;;;20.63;6.70;;;28.80;61.80;;;;;;5095940;28;20032;-70
2022/06/01 06:20:43;;;;;;;19.98;7.10;;;29.00;61.10;;;;;;5095413;28;20056;-66
2022/06/01 06:23:09;;;;;;;16.30;6.50;;;29.00;61.80;;;;;;5095650;28;20432;-69
2022/06/01 06:25:35;;;;;;;24.45;8.18;;;29.10;61.20;;;;;;5095526;28;20084;-71
2022/06/01 06:28:01;;;;;;;23.17;7.07;;;29.00;61.30;;;;;;5095567;28;20107;-68
2022/06/01 06:30:27;;;;;;;21.38;6.47;;;29.10;61.20;;;;;;5095322;28;20021;-67
2022/06/01 06:32:53;;;;;;;20.73;6.80;;;29.00;60.90;;;;;;5095462;28;20067;-66
2022/06/01 06:35:18;;;;;;;25.20;6.18;;;29.10;60.60;;;;;;5095516;28;20461;-67
2022/06/01 06:37:44;;;;;;;19.67;7.55;;;29.10;60.50;;;;;;5076910;28;20107;-68
2022/06/01 06:40:11;;;;;;;27.38;7.38;;;29.20;60.40;;;;;;5095405;28;20020;-70
2022/06/01 06:42:37;;;;;;;25.95;7.88;;;29.40;59.90;;;;;;5095231;28;20035;-66
2022/06/01 06:45:03;;;;;;;23.08;6.57;;;29.30;60.00;;;;;;5095081;28;20012;-66
2022/06/01 06:47:33;;;;;;;19.33;6.55;;;29.30;59.70;;;;;;5095460;28;20142;-68
2022/06/01 06:50:00;;;;;;;24.65;7.65;;;29.30;59.30;;;;;;5094753;28;20032;-66
2022/06/01 06:52:26;;;;;;;25.17;8.27;;;29.10;59.20;;;;;;5076732;28;20020;-66
2022/06/01 06:54:53;;;;;;;25.40;7.32;;;29.10;59.40;;;;;;5094929;28;20032;-71
2022/06/01 06:57:18;;;;;;;22.90;7.30;;;29.20;59.40;;;;;;5077124;28;20483;-67
2022/06/01 06:59:44;;;;;;;23.30;6.57;;;29.30;59.10;;;;;;5094934;28;20039;-74
2022/06/01 07:02:10;;;;;;;20.83;6.60;;;29.40;57.50;;;;;;5095348;28;20052;-71
2022/06/01 07:04:36;;;;;;;30.23;7.32;;;29.40;57.60;;;;;;5094901;28;20035;-68
2022/06/01 07:07:03;;;;;;;25.77;7.13;;;29.40;58.20;;;;;;5095303;28;20016;-73
2022/06/01 07:09:28;;;;;;;21.65;6.78;;;29.60;57.10;;;;;;5094849;28;20372;-70
2022/06/01 07:11:55;;;;;;;16.85;6.63;;;29.70;57.80;;;;;;5094956;28;20119;-71
2022/06/01 07:14:21;;;;;;;22.90;7.47;;;29.60;57.10;;;;;;5095024;28;20032;-69
2022/06/01 07:16:47;;;;;;;24.85;6.65;;;29.70;58.10;;;;;;5094685;28;20527;-72
2022/06/01 07:19:13;;;;;;;19.33;7.15;;;29.80;57.60;;;;;;5094507;28;20070;-71
2022/06/01 07:21:39;;;;;;;23.55;7.15;;;29.70;57.30;;;;;;5094837;28;20024;-69
2022/06/01 07:24:07;;;;;;;19.63;7.20;;;29.70;57.20;;;;;;5094499;28;20020;-70
2022/06/01 07:26:39;;;;;;;19.08;6.40;;;29.90;57.00;;;;;;5094464;28;20028;-68
2022/06/01 07:29:08;;;;;;;21.67;6.43;;;30.00;56.50;;;;;;5094307;28;20499;-69
2022/06/01 07:31:34;;;;;;;20.15;6.35;;;30.20;55.40;;;;;;5095003;28;20031;-69
2022/06/01 07:33:59;;;;;;;21.85;6.22;;;30.20;56.30;;;;;;5094648;28;20032;-69
2022/06/01 07:36:27;;;;;;;15.98;5.30;;;30.20;54.80;;;;;;5094586;28;20024;-71
2022/06/01 07:44:32;;;;;;;13.35;5.95;;;29.90;54.70;;;;;;5094400;28;20570;-73
2022/06/01 07:46:58;;;;;;;16.20;6.20;;;30.00;54.50;;;;;;5094364;28;20060;-69
2022/06/01 07:49:25;;;;;;;19.55;6.03;;;30.10;53.50;;;;;;5078067;28;20388;-74
2022/06/01 07:51:53;;;;;;;22.67;6.15;;;30.10;53.20;;;;;;5094920;28;20074;-72
2022/06/01 07:54:19;;;;;;;16.23;6.20;;;30.20;53.70;;;;;;5093781;28;20028;-73
2022/06/01 07:56:45;;;;;;;23.13;6.63;;;30.20;53.90;;;;;;5093828;28;20077;-71
2022/06/01 07:59:11;;;;;;;20.98;6.50;;;30.20;53.30;;;;;;5093790;28;20024;-71
2022/06/01 08:01:37;;;;;;;18.15;5.60;;;29.90;52.80;;;;;;5094062;28;20028;-72
2022/06/01 08:04:04;;;;;;;22.83;6.00;;;29.90;53.30;;;;;;5094250;28;20024;-74
2022/06/01 08:06:31;;;;;;;18.50;5.93;;;29.90;53.20;;;;;;5094115;28;20473;-71
2022/06/01 08:08:57;;;;;;;16.08;5.30;;;29.80;52.80;;;;;;5093759;28;20028;-72
2022/06/01 08:14:09;;;;;;;26.10;6.03;;;29.60;53.00;;;;;;5078621;28;20074;-69
2022/06/01 08:16:35;;;;;;;21.17;6.00;;;29.50;53.10;;;;;;5093780;28;20047;-72
2022/06/01 08:19:01;;;;;;;15.68;5.80;;;29.50;52.80;;;;;;5093833;28;20059;-73
2022/06/01 08:21:28;;;;;;;21.02;6.00;;;29.60;53.20;;;;;;5094821;28;20048;-74
2022/06/01 08:23:54;;;;;;;41.50;8.27;;;29.50;53.00;;;;;;5094586;28;20080;-72
2022/06/01 08:26:21;;;;;;;18.00;5.70;;;29.50;52.50;;;;;;5094213;28;20032;-73
2022/06/01 08:28:47;;;;;;;14.23;5.32;;;29.50;50.60;;;;;;5093354;28;20013;-74
2022/06/01 08:31:12;;;;;;;18.08;5.05;;;29.40;51.70;;;;;;5093240;28;20035;-71
2022/06/01 08:33:39;;;;;;;20.30;4.78;;;29.30;51.30;;;;;;5093245;28;20058;-71
2022/06/01 08:36:05;;;;;;;26.88;5.18;;;29.30;51.80;;;;;;5093365;28;20012;-76
2022/06/01 08:38:31;;;;;;;19.42;5.15;;;29.20;51.40;;;;;;5075316;28;20028;-69
2022/06/01 08:41:03;;;;;;;19.75;5.50;;;29.20;51.20;;;;;;5093322;28;20172;-68
2022/06/01 08:43:35;;;;;;;19.00;4.68;;;29.10;50.80;;;;;;5075345;28;20028;-70
2022/06/01 08:46:02;;;;;;;19.55;4.68;;;29.10;50.90;;;;;;5093013;28;20497;-73
2022/06/01 08:48:45;;;;;;;15.05;4.50;;;29.10;50.80;;;;;;5093337;28;20050;-73
2022/06/01 08:51:12;;;;;;;15.45;4.82;;;29.10;49.60;;;;;;5093019;28;20032;-69
2022/06/01 08:53:38;;;;;;;13.20;4.53;;;29.00;50.30;;;;;;5093007;28;20524;-72
2022/06/01 08:56:15;;;;;;;19.02;4.80;;;29.00;49.80;;;;;;5092954;28;20032;-72
2022/06/01 08:58:43;;;;;;;19.25;4.95;;;29.00;48.70;;;;;;5093065;28;20028;-70
2022/06/01 09:01:28;;;;;;;17.48;5.07;;;29.00;49.80;;;;;;5092872;28;20214;-72
2022/06/01 09:04:25;;;;;;;21.13;4.80;;;29.00;48.90;;;;;;5074936;28;20027;-75
2022/06/01 09:07:14;;;;;;;18.08;4.57;;;29.00;49.30;;;;;;5092124;28;20059;-75
2022/06/01 09:10:05;;;;;;;14.52;4.10;;;29.00;49.10;;;;;;5092445;28;20370;-71
2022/06/01 09:12:33;;;;;;;14.40;4.22;;;29.00;50.70;;;;;;5093097;28;20016;-70
2022/06/01 09:15:17;;;;;;;16.48;4.38;;;28.90;50.60;;;;;;5095713;28;20036;-69
2022/06/01 09:17:44;;;;;;;16.98;4.75;;;28.90;49.50;;;;;;5097070;28;20536;-71
2022/06/01 09:23:01;;;;;;;17.05;4.07;;;28.80;50.00;;;;;;5096832;28;20043;-70
2022/06/01 09:25:37;;;;;;;20.42;4.32;;;28.70;49.50;;;;;;5096620;28;20082;-70
2022/06/01 09:28:06;;;;;;;14.95;4.15;;;28.70;49.10;;;;;;5096433;28;20028;-70
2022/06/01 09:30:39;;;;;;;13.57;3.97;;;28.80;48.20;;;;;;5096545;28;20032;-69
2022/06/01 09:33:14;;;;;;;18.77;4.18;;;28.80;46.60;;;;;;5078102;28;20459;-73
2022/06/01 09:35:46;;;;;;;15.90;4.15;;;28.80;46.50;;;;;;5096060;28;20128;-68
2022/06/01 09:38:34;;;;;;;17.90;6.43;;;28.80;47.30;;;;;;5096367;28;20089;-74
2022/06/01 09:41:06;;;;;;;14.70;4.32;;;28.90;47.10;;;;;;5096278;28;20066;-72
2022/06/01 09:43:32;;;;;;;18.13;4.30;;;28.90;47.30;;;;;;5078079;28;20028;-74
2022/06/01 09:45:58;;;;;;;19.55;4.47;;;28.90;47.40;;;;;;5096362;28;20038;-69
2022/06/01 09:48:27;;;;;;;12.57;3.88;;;29.00;47.10;;;;;;5096414;28;20016;-70
2022/06/01 09:51:08;;;;;;;17.58;4.35;;;29.00;47.70;;;;;;5096341;28;20070;-73
2022/06/01 09:54:11;;;;;;;18.80;4.55;;;29.10;46.20;;;;;;5096219;28;20048;-72
2022/06/01 09:56:45;;;;;;;14.77;3.85;;;29.10;46.50;;;;;;5085032;28;20032;-74
2022/06/01 10:08:06;;;;;;;15.10;4.50;;;29.20;48.50;;;;;;5096294;28;20047;-74
2022/06/01 10:10:32;;;;;;;17.52;4.63;;;29.30;46.70;;;;;;5095621;28;20476;-72
2022/06/01 10:12:59;;;;;;;15.57;5.30;;;29.30;46.70;;;;;;5095845;28;20082;-73
2022/06/01 10:15:44;;;;;;;15.80;4.45;;;29.30;47.60;;;;;;5095725;28;20449;-73
2022/06/01 10:18:20;;;;;;;12.85;4.22;;;29.30;46.60;;;;;;5095054;28;20047;-72
2022/06/01 10:20:52;;;;;;;12.18;3.20;;;29.40;46.40;;;;;;5077278;28;20110;-69
2022/06/01 10:23:25;;;;;;;9.93;3.33;;;29.40;46.20;;;;;;5095561;28;20462;-72
2022/06/01 10:25:55;;;;;;;13.88;4.93;;;29.40;45.30;;;;;;5094475;28;20032;-71
2022/06/01 10:28:35;;;;;;;15.23;3.95;;;29.40;45.30;;;;;;5095698;28;20103;-74
2022/06/01 10:31:03;;;;;;;13.85;4.03;;;29.50;44.50;;;;;;5095243;28;20039;-69
2022/06/01 10:33:45;;;;;;;14.40;3.97;;;29.70;45.60;;;;;;5096201;28;20442;-70
2022/06/01 10:36:23;;;;;;;9.75;3.10;;;29.80;44.60;;;;;;5095807;28;20051;-69
2022/06/01 10:38:51;;;;;;;13.73;3.75;;;29.80;46.50;;;;;;5095923;28;20105;-75
2022/06/01 10:41:26;;;;;;;11.38;3.28;;;29.90;44.90;;;;;;5095490;28;20043;-70
2022/06/01 10:44:17;;;;;;;13.82;3.60;;;29.90;47.20;;;;;;5095989;28;20027;-69
2022/06/01 10:46:50;;;;;;;16.13;4.40;;;29.90;45.10;;;;;;5095638;28;20496;-71
2022/06/01 10:49:29;;;;;;;17.13;4.40;;;29.90;47.50;;;;;;5095282;28;20465;-70
2022/06/01 10:52:33;;;;;;;14.93;3.85;;;30.00;47.30;;;;;;5096038;28;20080;-71
2022/06/01 10:55:03;;;;;;;13.20;3.47;;;30.10;45.00;;;;;;5091266;28;20075;-69
2022/06/01 10:57:29;;;;;;;16.05;4.10;;;30.20;47.30;;;;;;5095590;28;20107;-69
2022/06/01 10:59:55;;;;;;;9.77;3.78;;;30.30;47.40;;;;;;5095447;28;20020;-69
2022/06/01 11:02:27;;;;;;;12.60;3.85;;;30.30;46.90;;;;;;5095301;28;20366;-71
2022/06/01 11:04:56;;;;;;;13.15;4.00;;;30.40;45.30;;;;;;5095266;28;20020;-72
2022/06/01 11:07:27;;;;;;;13.23;4.00;;;30.40;44.70;;;;;;5095318;28;20025;-70
2022/06/01 11:10:00;;;;;;;16.45;4.57;;;30.60;44.70;;;;;;5094933;28;20200;-68
2022/06/01 11:12:59;;;;;;;21.80;4.68;;;30.60;45.10;;;;;;5095146;28;20036;-71
2022/06/01 11:15:52;;;;;;;11.75;3.90;;;30.60;45.00;;;;;;5076699;28;20040;-69
2022/06/01 11:18:54;;;;;;;13.90;4.60;;;30.60;44.80;;;;;;5094792;28;20024;-68
2022/06/01 11:21:40;;;;;;;15.20;3.72;;;30.70;44.90;;;;;;5094676;28;20059;-71
2022/06/01 11:24:14;;;;;;;11.10;4.10;;;30.70;46.10;;;;;;5094593;28;20035;-69
2022/06/01 11:26:52;;;;;;;14.63;3.80;;;30.80;45.90;;;;;;5094802;28;20024;-71
2022/06/01 11:29:42;;;;;;;18.27;4.45;;;30.80;47.10;;;;;;5094581;28;20052;-70
2022/06/01 11:32:14;;;;;;;18.88;4.00;;;30.80;48.20;;;;;;5094944;28;20028;-69
2022/06/01 11:35:11;;;;;;;15.13;4.78;;;30.90;49.80;;;;;;5094466;28;20388;-70
2022/06/01 11:37:47;;;;;;;18.15;4.78;;;31.00;49.00;;;;;;5094635;28;20034;-69
2022/06/01 11:40:26;;;;;;;16.80;4.30;;;31.00;50.50;;;;;;5094073;28;20465;-70
2022/06/01 11:42:57;;;;;;;14.93;3.70;;;31.10;50.80;;;;;;5094589;28;20028;-70
2022/06/01 11:45:39;;;;;;;43.45;4.70;;;31.10;51.10;;;;;;5094492;28;20024;-71
2022/06/01 11:48:08;;;;;;;29.15;4.35;;;31.10;51.30;;;;;;5094639;28;20562;-71
2022/06/01 11:51:01;;;;;;;53.20;5.70;;;31.10;51.30;;;;;;5094064;28;20043;-69
2022/06/01 11:53:43;;;;;;;17.90;4.50;;;31.10;50.10;;;;;;5094166;28;20042;-71
2022/06/01 11:56:23;;;;;;;39.05;4.93;;;31.10;51.40;;;;;;5094169;28;20250;-70
2022/06/01 11:59:25;;;;;;;11.80;4.00;;;31.20;50.10;;;;;;5094438;28;20028;-70
2022/06/01 12:01:57;;;;;;;14.40;3.88;;;31.20;50.00;;;;;;5094562;28;20588;-72
2022/06/01 12:04:22;;;;;;;17.73;4.75;;;31.10;50.20;;;;;;5094327;28;20078;-74
2022/06/01 12:07:01;;;;;;;25.60;4.75;;;31.10;51.60;;;;;;5094602;28;20487;-74
2022/06/01 12:09:35;;;;;;;13.50;3.15;;;31.10;50.50;;;;;;5094463;28;20461;-69
2022/06/01 12:12:01;;;;;;;14.18;4.60;;;31.10;50.50;;;;;;5093988;28;20027;-71
2022/06/01 12:14:41;;;;;;;14.40;4.13;;;31.00;51.60;;;;;;5094476;28;20024;-72
2022/06/01 12:17:19;;;;;;;17.60;4.10;;;31.10;52.00;;;;;;5094423;28;20098;-73
2022/06/01 12:20:12;;;;;;;18.80;4.38;;;31.20;51.70;;;;;;5094211;28;20051;-74
2022/06/01 12:28:58;;;;;;;15.85;4.18;;;31.20;50.10;;;;;;5094284;28;20054;-71
2022/06/01 12:31:29;;;;;;;18.45;3.67;;;31.20;49.90;;;;;;5083190;28;20028;-73
2022/06/01 12:34:03;;;;;;;14.25;3.58;;;31.20;51.00;;;;;;5094117;28;20024;-73
2022/06/01 12:36:55;;;;;;;15.02;3.67;;;31.20;49.70;;;;;;5094006;28;20044;-72
2022/06/01 12:39:49;;;;;;;15.82;4.28;;;31.20;49.70;;;;;;5094572;28;20024;-74
2022/06/01 12:42:21;;;;;;;13.98;3.53;;;31.20;49.90;;;;;;5095074;28;20040;-73
2022/06/01 12:44:51;;;;;;;12.82;3.67;;;31.30;50.80;;;;;;5107437;28;20086;-74
2022/06/01 12:47:32;;;;;;;17.38;4.20;;;31.30;50.60;;;;;;5096632;28;20049;-73
2022/06/01 12:50:17;;;;;;;12.82;3.90;;;31.30;50.40;;;;;;5092915;28;20032;-74
2022/06/01 12:52:44;;;;;;;12.00;3.30;;;31.30;48.80;;;;;;5093569;28;20164;-75
2022/06/01 12:55:17;;;;;;;13.45;3.10;;;31.30;50.00;;;;;;5093419;28;20032;-76
2022/06/01 12:57:55;;;;;;;14.52;4.13;;;31.40;49.80;;;;;;5093432;28;20050;-75
2022/06/01 13:00:23;;;;;;;13.15;3.50;;;31.50;49.40;;;;;;5093463;28;20054;-75
2022/06/01 13:02:49;;;;;;;15.65;3.30;;;31.60;48.80;;;;;;5093581;28;20046;-73
2022/06/01 13:05:23;;;;;;;12.75;3.30;;;31.60;48.30;;;;;;5093568;28;20485;-74
2022/06/01 13:07:57;;;;;;;13.77;3.88;;;31.70;48.80;;;;;;5093431;28;20039;-75
2022/06/01 13:10:26;;;;;;;15.98;3.70;;;31.80;47.00;;;;;;5093327;28;20026;-75
2022/06/01 13:13:16;;;;;;;13.75;4.10;;;31.80;47.10;;;;;;5093079;28;20030;-75
2022/06/01 13:15:53;;;;;;;16.55;4.18;;;31.80;46.40;;;;;;5092982;28;20027;-72
2022/06/01 13:18:21;;;;;;;10.10;3.70;;;31.80;46.70;;;;;;5093201;28;20056;-74
2022/06/01 13:20:54;;;;;;;15.30;3.97;;;31.80;46.40;;;;;;5092742;28;20040;-74
2022/06/01 13:23:47;;;;;;;10.60;4.25;;;31.80;46.30;;;;;;5093335;28;20389;-73
2022/06/01 13:26:15;;;;;;;;;;;31.80;45.70;;;;;;5093737;28;20069;-72
2022/06/01 13:28:45;;;;;;;15.18;3.13;;;31.90;45.20;;;;;;5093167;28;19948;-72
2022/06/01 13:31:12;;;;;;;12.82;3.30;;;31.90;46.20;;;;;;5092685;28;20350;-72